Terminal Aerodrome Forecast
Issued by NWS

Home | Current Version | Previous Version | Text Only | Print | Product List | Glossary On
Versions: 1 2 3 4 5 6 7 8 9 10 11 12 13
126
FTUS43 KUNR 212320
TAFGCC
TAF
KGCC 212320Z 2200/2224 18011KT P6SM SKC
     FM221100 22011KT P6SM SKC
     FM222000 33009KT P6SM SKC=

USA.gov is the U.S. government's official web portal to all federal, state and local government web resources and services.